createdAt,value
2023-03-04T00:00:43.202Z,77.97
2023-03-04T00:03:23.098Z,84.43
2023-03-04T00:05:51.019Z,82.15
2023-03-04T00:08:19.244Z,87.65
2023-03-04T00:10:48.066Z,81.38
2023-03-04T00:13:16.903Z,72.32
2023-03-04T00:15:44.826Z,78.93
2023-03-04T00:18:13.207Z,74.03
2023-03-04T00:20:42.470Z,75.25
2023-03-04T00:23:10.814Z,72.22
2023-03-04T00:25:38.716Z,68.35
2023-03-04T00:28:06.947Z,65.28
2023-03-04T00:30:34.902Z,67.22
2023-03-04T00:33:03.088Z,74.45
2023-03-04T00:35:31.081Z,73.72
2023-03-04T00:38:00.808Z,69.00
2023-03-04T00:40:29.016Z,67.85
2023-03-04T00:42:57.199Z,74.20
2023-03-04T00:45:25.326Z,72.88
2023-03-04T00:47:53.563Z,71.28
2023-03-04T00:50:21.595Z,67.50
2023-03-04T00:52:49.901Z,67.05
2023-03-04T00:55:19.364Z,72.18
2023-03-04T00:57:47.556Z,73.57
2023-03-04T01:00:16.468Z,69.43
2023-03-04T01:02:44.677Z,72.95
2023-03-04T01:05:13.312Z,71.45
2023-03-04T01:07:41.657Z,62.40
2023-03-04T01:10:11.236Z,76.57
2023-03-04T01:12:41.615Z,68.10
2023-03-04T01:15:10.995Z,69.85
2023-03-04T01:17:39.209Z,62.10
2023-03-04T01:20:09.036Z,69.13
2023-03-04T01:22:37.584Z,72.07
2023-03-04T01:25:06.187Z,53.90
2023-03-04T01:27:34.373Z,63.35
2023-03-04T01:30:04.363Z,66.65
2023-03-04T01:32:32.562Z,64.88
2023-03-04T01:35:00.531Z,67.38
2023-03-04T01:37:28.902Z,68.15
2023-03-04T01:39:56.799Z,67.18
2023-03-04T01:42:26.386Z,56.55
2023-03-04T01:44:54.513Z,61.03
2023-03-04T01:47:25.561Z,63.88
2023-03-04T01:49:56.458Z,65.00
2023-03-04T01:52:25.856Z,57.72
2023-03-04T01:54:53.827Z,62.13
2023-03-04T01:57:24.274Z,60.80
2023-03-04T02:00:18.584Z,56.75
2023-03-04T02:02:48.815Z,59.40
2023-03-04T02:05:17.113Z,58.30
2023-03-04T02:07:45.303Z,47.67
2023-03-04T02:10:13.621Z,55.00
2023-03-04T02:12:42.291Z,57.45
2023-03-04T02:15:10.896Z,59.70
2023-03-04T02:17:39.068Z,53.80
2023-03-04T02:20:17.270Z,48.97
2023-03-04T02:22:52.352Z,55.17
2023-03-04T02:25:24.053Z,47.97
2023-03-04T02:27:53.770Z,43.95
2023-03-04T02:30:23.398Z,49.80
2023-03-04T02:32:51.667Z,51.60
2023-03-04T02:35:20.838Z,50.60
2023-03-04T02:37:49.324Z,54.42
2023-03-04T02:40:22.221Z,53.30
2023-03-04T02:42:50.426Z,49.63
2023-03-04T02:45:47.374Z,56.17
2023-03-04T02:48:16.991Z,48.97
2023-03-04T02:50:47.566Z,47.53
2023-03-04T02:53:16.177Z,47.10
2023-03-04T02:55:44.736Z,45.17
2023-03-04T02:58:13.809Z,43.10
2023-03-04T03:00:42.251Z,47.58
2023-03-04T03:03:11.813Z,49.75
2023-03-04T03:05:40.387Z,41.55
2023-03-04T03:08:08.873Z,52.80
2023-03-04T03:10:36.842Z,46.30
2023-03-04T03:13:05.202Z,47.78
2023-03-04T03:15:33.136Z,47.67
2023-03-04T03:18:01.324Z,48.80
2023-03-04T03:20:30.944Z,54.67
2023-03-04T03:22:59.114Z,49.70
2023-03-04T03:25:27.026Z,53.47
2023-03-04T03:27:55.635Z,49.70
2023-03-04T03:30:23.530Z,50.58
2023-03-04T03:32:51.715Z,53.10
2023-03-04T03:35:19.953Z,56.03
2023-03-04T03:37:50.062Z,46.53
2023-03-04T03:40:18.643Z,42.78
2023-03-04T03:42:47.158Z,50.42
2023-03-04T03:45:15.303Z,52.40
2023-03-04T03:47:43.663Z,56.45
2023-03-04T03:50:12.444Z,58.78
2023-03-04T03:52:40.611Z,65.50
2023-03-04T03:55:10.974Z,56.85
2023-03-04T03:57:39.146Z,66.68
2023-03-04T04:00:09.334Z,56.63
2023-03-04T04:02:37.557Z,58.72
2023-03-04T04:05:06.580Z,65.07
2023-03-04T04:07:34.832Z,67.05
2023-03-04T04:10:02.747Z,65.40
2023-03-04T04:12:33.792Z,60.17
2023-03-04T04:15:01.985Z,68.70
2023-03-04T04:17:30.179Z,64.53
2023-03-04T04:19:58.251Z,67.93
2023-03-04T04:22:26.450Z,69.05
2023-03-04T04:24:54.346Z,64.93
2023-03-04T04:27:22.938Z,62.53
2023-03-04T04:29:52.288Z,68.82
2023-03-04T04:32:20.601Z,67.20
2023-03-04T04:34:48.497Z,67.15
2023-03-04T04:37:16.813Z,71.40
2023-03-04T04:39:44.685Z,64.30
2023-03-04T04:42:13.165Z,63.58
2023-03-04T04:44:41.087Z,58.13
2023-03-04T04:47:10.762Z,69.72
2023-03-04T04:49:38.684Z,78.32
2023-03-04T04:52:06.866Z,71.47
2023-03-04T04:54:34.783Z,73.80
2023-03-04T04:57:02.996Z,81.07
2023-03-04T04:59:30.975Z,76.25
2023-03-04T05:01:59.304Z,81.45
2023-03-04T05:04:29.877Z,87.47
2023-03-04T05:06:58.052Z,77.60
2023-03-04T05:09:26.184Z,79.35
2023-03-04T05:11:54.726Z,89.10
2023-03-04T05:14:22.731Z,84.63
2023-03-04T05:16:52.833Z,88.20
2023-03-04T05:19:20.810Z,82.57
2023-03-04T05:21:50.359Z,91.43
2023-03-04T05:24:18.447Z,96.85
2023-03-04T05:26:46.642Z,95.90
2023-03-04T05:29:14.642Z,98.25
2023-03-04T05:31:42.805Z,100.28
2023-03-04T05:34:11.013Z,83.15
2023-03-04T05:36:39.227Z,87.43
2023-03-04T05:39:08.487Z,105.63
2023-03-04T05:41:36.834Z,89.03
2023-03-04T05:44:04.913Z,98.85
2023-03-04T05:46:33.799Z,103.85
2023-03-04T05:49:02.119Z,112.47
2023-03-04T05:51:30.464Z,116.45
2023-03-04T05:53:58.379Z,107.88
2023-03-04T05:56:29.923Z,110.00
2023-03-04T05:58:58.965Z,113.47
2023-03-04T06:01:27.386Z,98.72
2023-03-04T06:03:55.583Z,113.07
2023-03-04T06:06:23.891Z,114.68
2023-03-04T06:08:51.933Z,114.35
2023-03-04T06:11:20.251Z,88.05
2023-03-04T06:13:49.635Z,106.45
2023-03-04T06:16:17.917Z,48.08
2023-03-04T06:18:45.862Z,106.65
2023-03-04T06:21:14.216Z,82.45
2023-03-04T06:23:42.166Z,85.00
2023-03-04T06:26:15.277Z,108.88
2023-03-04T06:28:43.464Z,82.68
2023-03-04T06:31:13.030Z,72.47
2023-03-04T06:33:40.982Z,65.28
2023-03-04T06:36:09.666Z,68.00
2023-03-04T06:38:37.595Z,80.47
2023-03-04T06:41:10.244Z,104.07
2023-03-04T06:43:38.843Z,108.57
2023-03-04T06:46:07.781Z,105.03
2023-03-04T06:48:37.102Z,83.78
2023-03-04T06:51:08.731Z,90.22
2023-03-04T06:53:36.967Z,111.77
2023-03-04T06:56:05.650Z,126.53
2023-03-04T06:58:34.035Z,80.75
2023-03-04T07:01:14.493Z,117.60
2023-03-04T07:03:43.955Z,57.60
2023-03-04T07:06:13.493Z,103.50
2023-03-04T07:08:42.141Z,114.68
2023-03-04T07:11:10.579Z,102.45
2023-03-04T07:13:39.073Z,96.68
2023-03-04T07:16:08.381Z,112.22
2023-03-04T07:18:36.774Z,101.82
2023-03-04T07:21:07.923Z,103.25
2023-03-04T07:23:36.236Z,83.32
2023-03-04T07:26:05.178Z,103.70
2023-03-04T07:28:33.139Z,103.80
2023-03-04T07:31:10.668Z,92.28
2023-03-04T07:33:38.779Z,106.57
2023-03-04T07:36:08.726Z,104.30
2023-03-04T07:38:36.670Z,81.63
2023-03-04T07:41:04.967Z,126.18
2023-03-04T07:43:32.883Z,120.85
2023-03-04T07:46:02.412Z,117.32
2023-03-04T07:48:30.479Z,115.60
2023-03-04T07:51:10.594Z,105.35
2023-03-04T07:53:40.834Z,69.70
2023-03-04T07:56:11.409Z,133.88
2023-03-04T07:58:39.613Z,123.18
2023-03-04T08:01:11.618Z,110.13
2023-03-04T08:03:39.801Z,135.07
2023-03-04T08:06:10.582Z,142.43
2023-03-04T08:08:38.834Z,146.07
2023-03-04T08:11:08.021Z,138.48
2023-03-04T08:13:36.367Z,142.45
2023-03-04T08:16:05.441Z,144.32
2023-03-04T08:18:33.471Z,135.40
2023-03-04T08:21:01.748Z,131.55
2023-03-04T08:23:31.282Z,157.75
2023-03-04T08:25:59.584Z,161.07
2023-03-04T08:28:27.510Z,148.10
2023-03-04T08:30:56.698Z,126.55
2023-03-04T08:33:24.841Z,150.00
2023-03-04T08:35:54.279Z,159.35
2023-03-04T08:38:22.345Z,152.35
2023-03-04T08:40:55.032Z,137.20
2023-03-04T08:43:23.923Z,132.30
2023-03-04T08:45:52.654Z,126.53
2023-03-04T08:48:21.101Z,116.30
2023-03-04T08:50:50.081Z,104.38
2023-03-04T08:53:18.796Z,96.82
2023-03-04T08:55:47.468Z,100.32
2023-03-04T08:58:16.835Z,98.35
2023-03-04T09:00:48.505Z,105.13
2023-03-04T09:03:18.900Z,92.20
2023-03-04T09:05:47.390Z,93.38
2023-03-04T09:08:15.768Z,106.78
2023-03-04T09:10:44.731Z,84.32
2023-03-04T09:13:14.690Z,95.38
2023-03-04T09:15:47.093Z,92.82
2023-03-04T09:18:15.742Z,93.07
2023-03-04T09:20:43.951Z,103.25
2023-03-04T09:23:12.307Z,83.60
2023-03-04T09:25:41.280Z,90.85
2023-03-04T09:28:09.206Z,87.05
2023-03-04T09:30:37.550Z,87.43
2023-03-04T09:33:07.197Z,88.78
2023-03-04T09:35:37.654Z,75.72
2023-03-04T09:38:08.431Z,98.35
2023-03-04T09:40:42.133Z,84.90
2023-03-04T09:43:17.478Z,86.90
2023-03-04T09:45:51.543Z,85.55
2023-03-04T09:48:24.507Z,80.68
2023-03-04T09:51:02.350Z,94.50
2023-03-04T09:53:37.279Z,85.93
2023-03-04T09:56:06.919Z,99.28
2023-03-04T09:58:44.577Z,95.50
2023-03-04T10:01:18.959Z,89.82
2023-03-04T10:03:52.332Z,96.75
2023-03-04T10:06:21.982Z,93.57
2023-03-04T10:08:53.967Z,93.05
2023-03-04T10:11:26.324Z,100.63
2023-03-04T10:14:14.357Z,95.90
2023-03-04T10:16:45.787Z,101.80
2023-03-04T10:19:27.428Z,93.78
2023-03-04T10:21:55.752Z,97.72
2023-03-04T10:24:28.661Z,89.47
2023-03-04T10:27:01.482Z,84.22
2023-03-04T10:29:30.815Z,93.30
2023-03-04T10:31:59.107Z,80.53
2023-03-04T10:34:28.504Z,74.22
2023-03-04T10:37:00.556Z,91.53
2023-03-04T10:39:30.272Z,84.28
2023-03-04T10:42:01.164Z,81.18
2023-03-04T10:44:29.736Z,79.85
2023-03-04T10:46:59.040Z,86.57
2023-03-04T10:49:29.783Z,130.38
2023-03-04T10:52:03.454Z,90.28
2023-03-04T10:54:33.402Z,85.55
2023-03-04T10:57:02.824Z,85.90
2023-03-04T10:59:35.590Z,83.53
2023-03-04T11:02:16.844Z,65.28
2023-03-04T11:04:51.295Z,84.28
2023-03-04T11:07:20.010Z,80.80
2023-03-04T11:09:47.946Z,82.47
2023-03-04T11:12:18.192Z,76.88
2023-03-04T11:14:49.211Z,91.80
2023-03-04T11:17:23.129Z,72.63
2023-03-04T11:19:58.030Z,64.57
2023-03-04T11:22:27.118Z,83.15
2023-03-04T11:24:58.703Z,80.00
2023-03-04T11:27:32.821Z,79.55
2023-03-04T11:30:10.473Z,84.65
2023-03-04T11:32:43.283Z,59.42
2023-03-04T11:35:19.400Z,88.25
2023-03-04T11:37:52.132Z,81.75
2023-03-04T11:40:26.074Z,62.05
2023-03-04T11:42:57.563Z,74.28
2023-03-04T11:45:34.088Z,64.20
2023-03-04T11:48:08.434Z,65.82
2023-03-04T11:50:47.409Z,64.93
2023-03-04T11:53:33.518Z,65.00
2023-03-04T11:56:14.689Z,61.95
2023-03-04T11:58:56.197Z,51.58
2023-03-04T12:01:28.606Z,56.90
2023-03-04T12:04:07.899Z,55.88
2023-03-04T12:06:45.668Z,53.55
2023-03-04T12:09:23.642Z,59.30
2023-03-04T12:11:57.398Z,55.30
2023-03-04T12:14:29.330Z,46.42
2023-03-04T12:17:20.573Z,53.35
2023-03-04T12:20:01.048Z,53.55
2023-03-04T12:22:35.674Z,48.60
2023-03-04T12:25:20.466Z,105.57
2023-03-04T12:27:57.350Z,41.85
2023-03-04T12:30:39.837Z,41.97
2023-03-04T12:33:14.519Z,50.92
2023-03-04T12:35:46.823Z,53.00
2023-03-04T12:38:36.394Z,44.83
2023-03-04T12:41:18.315Z,48.63
2023-03-04T12:43:54.440Z,50.70
2023-03-04T12:46:28.993Z,41.95
2023-03-04T12:49:10.379Z,47.95
2023-03-04T12:51:46.465Z,48.47
2023-03-04T12:54:22.251Z,47.05
2023-03-04T12:56:54.937Z,40.65
2023-03-04T12:59:26.486Z,35.90
2023-03-04T13:02:03.581Z,48.38
2023-03-04T13:04:38.836Z,39.80
2023-03-04T13:07:13.288Z,169.10
2023-03-04T13:09:49.864Z,43.55
2023-03-04T13:12:22.070Z,44.60
2023-03-04T13:20:21.679Z,41.60
2023-03-04T13:22:55.466Z,47.25
2023-03-04T13:25:41.094Z,72.18
2023-03-04T13:28:26.927Z,41.92
2023-03-04T13:31:24.153Z,41.05
2023-03-04T13:33:55.949Z,48.67
2023-03-04T13:36:55.778Z,33.77
2023-03-04T13:39:31.992Z,34.47
2023-03-04T13:42:01.779Z,35.80
2023-03-04T13:44:49.991Z,42.35
2023-03-04T13:47:20.442Z,36.20
2023-03-04T13:49:48.788Z,37.72
2023-03-04T13:52:39.206Z,44.13
2023-03-04T13:55:33.185Z,40.78
2023-03-04T13:58:03.181Z,38.00
2023-03-04T14:00:33.007Z,32.15
2023-03-04T14:03:14.919Z,39.95
2023-03-04T14:05:43.103Z,32.97
2023-03-04T14:08:20.423Z,35.42
2023-03-04T14:10:56.392Z,34.35
2023-03-04T14:13:27.620Z,32.92
2023-03-04T14:15:57.641Z,35.30
2023-03-04T14:18:25.691Z,32.92
2023-03-04T14:20:58.897Z,39.50
2023-03-04T14:23:29.213Z,38.25
2023-03-04T14:26:12.804Z,33.47
2023-03-04T14:28:46.311Z,90.25
2023-03-04T14:31:19.853Z,101.13
2023-03-04T14:33:50.569Z,53.70
2023-03-04T14:36:21.532Z,73.45
2023-03-04T14:38:58.790Z,47.63
2023-03-04T14:41:30.138Z,37.13
2023-03-04T14:44:04.255Z,37.05
2023-03-04T14:46:35.390Z,42.92
2023-03-04T14:49:04.392Z,38.63
2023-03-04T14:51:42.649Z,35.38
2023-03-04T14:54:32.713Z,39.03
2023-03-04T14:57:02.566Z,42.35
2023-03-04T14:59:33.382Z,31.85
2023-03-04T15:02:25.207Z,37.42
2023-03-04T15:04:53.422Z,39.30
2023-03-04T15:07:25.835Z,40.60
2023-03-04T15:09:55.872Z,30.20
2023-03-04T15:12:26.371Z,36.30
2023-03-04T15:14:56.770Z,31.23
2023-03-04T15:17:32.929Z,35.00
2023-03-04T15:20:02.659Z,34.33
2023-03-04T15:22:31.253Z,35.03
2023-03-04T15:24:59.511Z,33.80
2023-03-04T15:27:31.008Z,35.58
2023-03-04T15:30:02.210Z,225.40
2023-03-04T15:32:31.505Z,47.00
2023-03-04T15:35:00.765Z,39.67
2023-03-04T15:37:30.150Z,43.45
2023-03-04T15:39:58.795Z,37.17
2023-03-04T15:42:28.207Z,35.53
2023-03-04T15:44:56.172Z,35.42
2023-03-04T15:47:25.756Z,31.58
2023-03-04T15:49:53.802Z,31.30
2023-03-04T15:52:23.442Z,31.92
2023-03-04T15:54:51.449Z,38.10
2023-03-04T15:57:22.650Z,29.67
2023-03-04T15:59:50.804Z,29.50
2023-03-04T16:02:22.574Z,30.23
2023-03-04T16:04:52.196Z,31.35
2023-03-04T16:07:22.371Z,28.83
2023-03-04T16:09:53.548Z,30.92
2023-03-04T16:12:21.790Z,25.40
2023-03-04T16:14:51.109Z,30.55
2023-03-04T16:17:19.661Z,33.95
2023-03-04T16:19:47.849Z,25.73
2023-03-04T16:22:22.322Z,27.83
2023-03-04T16:24:50.439Z,32.35
2023-03-04T16:27:19.986Z,27.92
2023-03-04T16:29:48.097Z,34.20
2023-03-04T16:32:16.370Z,30.98
2023-03-04T16:34:44.489Z,23.77
2023-03-04T16:37:18.607Z,30.40
2023-03-04T16:39:47.470Z,29.35
2023-03-04T16:42:18.939Z,41.65
2023-03-04T16:44:48.282Z,39.50
2023-03-04T16:47:16.474Z,27.00
2023-03-04T16:49:44.430Z,26.27
2023-03-04T16:52:24.520Z,27.25
2023-03-04T16:54:53.105Z,30.40
2023-03-04T16:57:21.592Z,24.23
2023-03-04T16:59:50.167Z,39.55
2023-03-04T17:02:20.079Z,128.52
2023-03-04T17:04:50.096Z,48.08
2023-03-04T17:07:19.641Z,30.40
2023-03-04T17:09:47.549Z,33.45
2023-03-04T17:12:15.813Z,21.90
2023-03-04T17:14:43.726Z,36.00
2023-03-04T17:17:11.978Z,26.02
2023-03-04T17:19:41.109Z,25.13
2023-03-04T17:22:09.266Z,28.02
2023-03-04T17:24:38.806Z,28.70
2023-03-04T17:27:07.222Z,27.15
2023-03-04T17:29:35.178Z,25.92
2023-03-04T17:32:03.411Z,24.83
2023-03-04T17:34:31.554Z,27.45
2023-03-04T17:37:00.376Z,28.30
2023-03-04T17:39:28.511Z,47.30
2023-03-04T17:41:58.216Z,67.15
2023-03-04T17:44:26.123Z,23.27
2023-03-04T17:46:54.429Z,25.80
2023-03-04T17:49:22.364Z,24.02
2023-03-04T17:51:51.374Z,32.40
2023-03-04T17:54:19.441Z,36.70
2023-03-04T17:56:47.409Z,30.75
2023-03-04T17:59:17.957Z,27.83
2023-03-04T18:01:46.874Z,26.55
2023-03-04T18:04:15.943Z,25.33
2023-03-04T18:06:44.327Z,22.75
2023-03-04T18:09:12.680Z,25.17
2023-03-04T18:11:41.828Z,29.65
2023-03-04T18:14:12.361Z,27.13
2023-03-04T18:16:41.887Z,28.10
2023-03-04T18:19:10.757Z,25.20
2023-03-04T18:21:38.773Z,29.23
2023-03-04T18:24:08.485Z,29.23
2023-03-04T18:26:36.651Z,28.40
2023-03-04T18:29:05.119Z,28.45
2023-03-04T18:31:33.337Z,27.38
2023-03-04T18:34:03.728Z,26.35
2023-03-04T18:36:31.885Z,31.85
2023-03-04T18:39:02.289Z,30.80
2023-03-04T18:41:30.426Z,24.27
2023-03-04T18:43:58.679Z,24.85
2023-03-04T18:46:33.495Z,27.20
2023-03-04T18:49:04.825Z,28.73
2023-03-04T18:51:33.184Z,31.80
2023-03-04T18:54:01.626Z,38.38
2023-03-04T18:56:37.803Z,26.27
2023-03-04T18:59:09.311Z,34.03
2023-03-04T19:01:38.353Z,26.48
2023-03-04T19:04:09.086Z,20.92
2023-03-04T19:06:37.333Z,26.10
2023-03-04T19:09:07.373Z,35.30
2023-03-04T19:11:35.483Z,33.97
2023-03-04T19:14:03.767Z,39.65
2023-03-04T19:16:31.701Z,30.33
2023-03-04T19:19:00.234Z,34.03
2023-03-04T19:21:29.485Z,29.92
2023-03-04T19:23:57.687Z,36.88
2023-03-04T19:26:25.813Z,24.27
2023-03-04T19:28:53.968Z,35.42
2023-03-04T19:31:21.902Z,44.60
2023-03-04T19:33:50.506Z,37.55
2023-03-04T19:36:18.544Z,40.20
2023-03-04T19:38:48.292Z,38.33
2023-03-04T19:41:17.827Z,37.03
2023-03-04T19:43:46.098Z,36.75
2023-03-04T19:46:14.508Z,35.28
2023-03-04T19:48:44.983Z,35.05
2023-03-04T19:51:16.933Z,38.00
2023-03-04T19:53:45.424Z,37.60
2023-03-04T19:56:14.781Z,41.20
2023-03-04T19:58:43.193Z,38.38
2023-03-04T20:01:21.094Z,45.42
2023-03-04T20:03:49.452Z,36.35
2023-03-04T20:06:17.492Z,37.05
2023-03-04T20:08:45.639Z,45.95
2023-03-04T20:11:15.193Z,37.25
2023-03-04T20:13:43.703Z,41.03
2023-03-04T20:16:12.481Z,40.53
2023-03-04T20:18:41.579Z,43.15
2023-03-04T20:21:10.654Z,35.42
2023-03-04T20:23:39.296Z,40.80
2023-03-04T20:26:07.577Z,39.55
2023-03-04T20:28:37.585Z,37.83
2023-03-04T20:31:14.156Z,36.97
2023-03-04T20:33:42.840Z,36.17
2023-03-04T20:36:10.754Z,39.60
2023-03-04T20:38:39.645Z,45.03
2023-03-04T20:41:07.917Z,32.78
2023-03-04T20:43:37.710Z,43.67
2023-03-04T20:46:38.003Z,40.13
2023-03-04T20:49:08.355Z,41.92
2023-03-04T20:51:37.353Z,39.58
2023-03-04T20:54:06.540Z,40.33
2023-03-04T20:56:35.191Z,40.80
2023-03-04T20:59:08.241Z,42.72
2023-03-04T21:01:37.010Z,27.52
2023-03-04T21:04:06.115Z,43.75
2023-03-04T21:06:34.539Z,40.05
2023-03-04T21:09:05.063Z,48.67
2023-03-04T21:11:39.995Z,40.22
2023-03-04T21:14:13.817Z,52.75
2023-03-04T21:16:42.530Z,45.20
2023-03-04T21:19:15.917Z,39.90
2023-03-04T21:21:45.268Z,49.45
2023-03-04T21:24:16.183Z,48.97
2023-03-04T21:26:45.377Z,40.63
2023-03-04T21:29:15.635Z,41.63
2023-03-04T21:31:46.252Z,39.70
2023-03-04T21:34:17.990Z,49.55
2023-03-04T21:36:46.310Z,46.95
2023-03-04T21:39:18.933Z,44.70
2023-03-04T21:44:27.765Z,44.22
2023-03-04T21:46:57.418Z,46.23
2023-03-04T21:49:26.130Z,43.33
2023-03-04T21:51:54.172Z,34.88
2023-03-04T21:54:22.438Z,47.60
2023-03-04T21:56:50.604Z,42.22
2023-03-04T21:59:20.147Z,33.47
2023-03-04T22:01:48.090Z,36.17
2023-03-04T22:04:16.541Z,36.45
2023-03-04T22:06:44.436Z,46.10
2023-03-04T22:09:13.094Z,31.58
2023-03-04T22:11:41.322Z,37.33
2023-03-04T22:14:09.523Z,35.03
2023-03-04T22:16:54.082Z,30.35
2023-03-04T22:19:23.726Z,27.63
2023-03-04T22:21:52.740Z,34.13
2023-03-04T22:24:21.577Z,31.13
2023-03-04T22:26:49.932Z,28.27
2023-03-04T22:29:18.511Z,30.27
2023-03-04T22:31:48.053Z,17.98
2023-03-04T22:34:17.323Z,17.27
2023-03-04T22:36:47.561Z,15.50
2023-03-04T22:39:19.520Z,15.07
2023-03-04T22:41:47.961Z,13.05
2023-03-04T22:44:16.228Z,16.00
2023-03-04T22:46:44.756Z,16.75
2023-03-04T22:49:15.695Z,12.15
2023-03-04T22:51:44.935Z,14.63
2023-03-04T22:54:13.987Z,12.57
2023-03-04T22:56:42.082Z,14.25
2023-03-04T22:59:10.326Z,12.52
2023-03-04T23:01:38.693Z,13.82
2023-03-04T23:04:07.054Z,16.33
2023-03-04T23:06:37.624Z,15.85
2023-03-04T23:09:06.470Z,13.60
2023-03-04T23:11:36.387Z,12.30
2023-03-04T23:14:07.021Z,11.95
2023-03-04T23:16:37.369Z,15.57
2023-03-04T23:19:06.102Z,14.43
2023-03-04T23:21:34.598Z,12.05
2023-03-04T23:24:06.750Z,16.42
2023-03-04T23:26:38.604Z,13.05
2023-03-04T23:29:08.552Z,16.33
2023-03-04T23:31:36.716Z,20.60
2023-03-04T23:34:06.920Z,20.90
2023-03-04T23:36:36.915Z,18.60
2023-03-04T23:39:07.651Z,20.63
2023-03-04T23:41:36.097Z,15.43
2023-03-04T23:44:05.501Z,18.55
2023-03-04T23:46:33.743Z,24.42
2023-03-04T23:49:02.188Z,22.98
2023-03-04T23:51:30.890Z,24.58
2023-03-04T23:53:59.885Z,19.13
2023-03-04T23:56:30.936Z,28.20
2023-03-04T23:58:59.909Z,28.52
